Time,TemperatureF,DewpointF,PressureIn,WindDirection,WindDirectionDegrees,WindSpeedMPH,WindSpeedGustMPH,Humidity,HourlyPrecipIn,Conditions,Clouds,dailyrainin,SoftwareType,DateUTC
2013-01-16 00:05:00,18.1,12.4,30.15,East,80,1.0,1.0,78,0.00,,,0.00,Wunderground v.1.15,2013-01-16 06:05:00,
2013-01-16 00:15:00,17.9,11.9,30.15,East,85,1.0,1.0,77,0.00,,,0.00,Wunderground v.1.15,2013-01-16 06:15:00,
2013-01-16 00:20:00,17.7,11.7,30.15,East,85,1.0,1.0,77,0.00,,,0.00,Wunderground v.1.15,2013-01-16 06:20:00,
2013-01-16 00:30:00,17.8,12.1,30.15,ENE,76,1.0,1.0,78,0.00,,,0.00,Wunderground v.1.15,2013-01-16 06:30:00,
2013-01-16 00:35:00,17.6,11.9,30.15,ENE,76,0.0,1.0,78,0.00,,,0.00,Wunderground v.1.15,2013-01-16 06:35:00,
2013-01-16 00:40:00,17.6,11.9,30.16,ENE,76,0.0,1.0,78,0.00,,,0.00,Wunderground v.1.15,2013-01-16 06:40:00,
2013-01-16 00:45:00,17.6,11.9,30.15,ENE,77,1.0,1.0,78,0.00,,,0.00,Wunderground v.1.15,2013-01-16 06:45:00,
2013-01-16 00:50:00,17.3,11.6,30.15,ENE,77,1.0,1.0,78,0.00,,,0.00,Wunderground v.1.15,2013-01-16 06:50:00,
2013-01-16 00:55:00,17.0,11.6,30.15,ENE,77,0.0,1.0,79,0.00,,,0.00,Wunderground v.1.15,2013-01-16 06:55:00,
2013-01-16 01:10:00,17.0,11.9,30.15,East,86,0.0,0.0,80,0.00,,,0.00,Wunderground v.1.15,2013-01-16 07:10:00,
2013-01-16 01:15:00,17.3,12.2,30.14,ENE,75,1.0,1.0,80,0.00,,,0.00,Wunderground v.1.15,2013-01-16 07:15:00,
2013-01-16 01:25:00,17.6,12.2,30.14,ENE,74,1.0,1.0,79,0.00,,,0.00,Wunderground v.1.15,2013-01-16 07:25:00,
2013-01-16 01:30:00,17.5,12.1,30.14,ENE,74,1.0,1.0,79,0.00,,,0.00,Wunderground v.1.15,2013-01-16 07:30:00,
2013-01-16 01:35:00,17.5,12.1,30.14,ENE,73,1.0,1.0,79,0.00,,,0.00,Wunderground v.1.15,2013-01-16 07:35:00,
2013-01-16 01:40:00,17.5,12.1,30.14,ENE,70,1.0,1.0,79,0.00,,,0.00,Wunderground v.1.15,2013-01-16 07:40:00,
2013-01-16 01:45:00,17.5,12.1,30.14,ENE,72,1.0,1.0,79,0.00,,,0.00,Wunderground v.1.15,2013-01-16 07:45:00,
2013-01-16 01:50:00,17.6,12.2,30.14,ENE,74,1.0,1.0,79,0.00,,,0.00,Wunderground v.1.15,2013-01-16 07:50:00,
2013-01-16 02:00:00,17.6,11.9,30.14,ENE,60,1.0,2.0,78,0.00,,,0.00,Wunderground v.1.15,2013-01-16 08:00:00,
2013-01-16 02:10:00,17.7,12.0,30.14,ENE,75,1.0,2.0,78,0.00,,,0.00,Wunderground v.1.15,2013-01-16 08:10:00,
2013-01-16 02:15:00,17.7,12.0,30.13,ENE,75,1.0,2.0,78,0.00,,,0.00,Wunderground v.1.15,2013-01-16 08:15:00,
2013-01-16 02:20:00,17.4,11.7,30.13,ENE,64,1.0,2.0,78,0.00,,,0.00,Wunderground v.1.15,2013-01-16 08:20:00,
2013-01-16 02:25:00,17.2,11.5,30.13,ENE,58,1.0,2.0,78,0.00,,,0.00,Wunderground v.1.15,2013-01-16 08:25:00,
2013-01-16 02:35:00,17.2,11.8,30.13,ENE,78,1.0,1.0,79,0.00,,,0.00,Wunderground v.1.15,2013-01-16 08:35:00,
2013-01-16 02:40:00,17.3,11.9,30.13,ENE,64,1.0,1.0,79,0.00,,,0.00,Wunderground v.1.15,2013-01-16 08:40:00,
2013-01-16 02:45:00,17.4,11.7,30.13,NE,55,1.0,1.0,78,0.00,,,0.00,Wunderground v.1.15,2013-01-16 08:45:00,
2013-01-16 02:50:00,17.3,11.6,30.13,NE,52,1.0,1.0,78,0.00,,,0.00,Wunderground v.1.15,2013-01-16 08:50:00,
2013-01-16 02:55:00,17.3,11.6,30.13,NE,50,1.0,1.0,78,0.00,,,0.00,Wunderground v.1.15,2013-01-16 08:55:00,
2013-01-16 03:00:00,17.3,11.6,30.13,ENE,77,1.0,1.0,78,0.00,,,0.00,Wunderground v.1.15,2013-01-16 09:00:00,
2013-01-16 03:05:00,17.4,11.7,30.13,ENE,72,1.0,2.0,78,0.00,,,0.00,Wunderground v.1.15,2013-01-16 09:05:00,
2013-01-16 03:15:00,17.4,11.7,30.12,NE,54,1.0,2.0,78,0.00,,,0.00,Wunderground v.1.15,2013-01-16 09:15:00,
2013-01-16 03:20:00,17.4,11.4,30.11,East,84,1.0,1.0,77,0.00,,,0.00,Wunderground v.1.15,2013-01-16 09:20:00,
2013-01-16 03:25:00,17.3,11.3,30.11,East,86,1.0,2.0,77,0.00,,,0.00,Wunderground v.1.15,2013-01-16 09:25:00,
2013-01-16 03:30:00,17.3,11.3,30.11,ENE,58,1.0,2.0,77,0.00,,,0.00,Wunderground v.1.15,2013-01-16 09:30:00,
2013-01-16 03:35:00,17.1,11.1,30.11,ENE,75,1.0,2.0,77,0.00,,,0.00,Wunderground v.1.15,2013-01-16 09:35:00,
2013-01-16 03:40:00,17.1,11.1,30.11,East,82,1.0,1.0,77,0.00,,,0.00,Wunderground v.1.15,2013-01-16 09:40:00,
2013-01-16 03:45:00,17.0,11.0,30.11,ENE,76,1.0,1.0,77,0.00,,,0.00,Wunderground v.1.15,2013-01-16 09:45:00,
2013-01-16 03:55:00,17.0,11.0,30.10,ENE,75,1.0,1.0,77,0.00,,,0.00,Wunderground v.1.15,2013-01-16 09:55:00,
2013-01-16 04:00:00,16.9,10.9,30.10,ENE,77,1.0,1.0,77,0.00,,,0.00,Wunderground v.1.15,2013-01-16 10:00:00,
2013-01-16 04:10:00,16.8,10.8,30.10,ENE,75,1.0,1.0,77,0.00,,,0.00,Wunderground v.1.15,2013-01-16 10:10:00,
2013-01-16 04:15:00,16.8,10.8,30.10,ENE,75,1.0,3.0,77,0.00,,,0.00,Wunderground v.1.15,2013-01-16 10:15:00,
2013-01-16 04:25:00,17.0,11.0,30.09,ENE,77,2.0,2.0,77,0.00,,,0.00,Wunderground v.1.15,2013-01-16 10:25:00,
2013-01-16 04:30:00,16.9,10.9,30.09,ENE,72,1.0,1.0,77,0.00,,,0.00,Wunderground v.1.15,2013-01-16 10:30:00,
2013-01-16 04:40:00,16.7,10.7,30.08,ENE,75,1.0,2.0,77,0.00,,,0.00,Wunderground v.1.15,2013-01-16 10:40:00,
2013-01-16 04:45:00,16.8,10.8,30.08,ENE,77,1.0,2.0,77,0.00,,,0.00,Wunderground v.1.15,2013-01-16 10:45:00,
2013-01-16 04:50:00,16.8,10.8,30.08,ENE,70,1.0,3.0,77,0.00,,,0.00,Wunderground v.1.15,2013-01-16 10:50:00,
2013-01-16 04:55:00,16.7,10.7,30.08,East,91,2.0,3.0,77,0.00,,,0.00,Wunderground v.1.15,2013-01-16 10:55:00,
2013-01-16 05:05:00,16.4,10.7,30.08,East,82,2.0,2.0,78,0.00,,,0.00,Wunderground v.1.15,2013-01-16 11:05:00,
2013-01-16 05:10:00,16.2,10.5,30.07,East,86,1.0,2.0,78,0.00,,,0.00,Wunderground v.1.15,2013-01-16 11:10:00,
2013-01-16 05:15:00,16.0,10.3,30.08,ENE,72,2.0,2.0,78,0.00,,,0.00,Wunderground v.1.15,2013-01-16 11:15:00,
2013-01-16 05:20:00,15.9,10.5,30.07,East,79,2.0,2.0,79,0.00,,,0.00,Wunderground v.1.15,2013-01-16 11:20:00,
2013-01-16 05:25:00,15.9,10.5,30.07,East,86,2.0,2.0,79,0.00,,,0.00,Wunderground v.1.15,2013-01-16 11:25:00,
2013-01-16 05:30:00,15.8,10.4,30.07,ENE,72,1.0,1.0,79,0.00,,,0.00,Wunderground v.1.15,2013-01-16 11:30:00,
2013-01-16 05:35:00,15.7,10.3,30.07,ENE,58,1.0,1.0,79,0.00,,,0.00,Wunderground v.1.15,2013-01-16 11:35:00,
2013-01-16 05:40:00,15.6,10.2,30.07,NE,37,1.0,1.0,79,0.00,,,0.00,Wunderground v.1.15,2013-01-16 11:40:00,
2013-01-16 05:45:00,15.7,10.3,30.07,NE,38,0.0,1.0,79,0.00,,,0.00,Wunderground v.1.15,2013-01-16 11:45:00,
2013-01-16 05:55:00,15.9,10.5,30.07,ENE,77,1.0,1.0,79,0.00,,,0.00,Wunderground v.1.15,2013-01-16 11:55:00,
2013-01-16 06:00:00,16.2,10.8,30.06,East,86,1.0,1.0,79,0.00,,,0.00,Wunderground v.1.15,2013-01-16 12:00:00,
2013-01-16 06:10:00,16.3,10.6,30.06,ENE,77,1.0,2.0,78,0.00,,,0.00,Wunderground v.1.15,2013-01-16 12:10:00,
2013-01-16 06:15:00,16.2,10.5,30.06,East,88,1.0,2.0,78,0.00,,,0.00,Wunderground v.1.15,2013-01-16 12:15:00,
2013-01-16 06:20:00,16.3,10.6,30.06,ENE,77,1.0,1.0,78,0.00,,,0.00,Wunderground v.1.15,2013-01-16 12:20:00,
2013-01-16 06:25:00,16.3,10.6,30.06,ENE,68,1.0,1.0,78,0.00,,,0.00,Wunderground v.1.15,2013-01-16 12:25:00,
2013-01-16 06:30:00,16.3,10.6,30.06,ENE,58,1.0,3.0,78,0.00,,,0.00,Wunderground v.1.15,2013-01-16 12:30:00,
2013-01-16 06:35:00,16.4,10.7,30.06,NE,37,2.0,3.0,78,0.00,,,0.00,Wunderground v.1.15,2013-01-16 12:35:00,
2013-01-16 06:45:00,16.5,10.8,30.06,NE,52,1.0,1.0,78,0.00,,,0.00,Wunderground v.1.15,2013-01-16 12:45:00,
2013-01-16 06:55:00,16.4,10.7,30.05,NE,37,1.0,2.0,78,0.00,,,0.00,Wunderground v.1.15,2013-01-16 12:55:00,
2013-01-16 07:00:00,16.4,10.7,30.06,NE,52,1.0,1.0,78,0.00,,,0.00,Wunderground v.1.15,2013-01-16 13:00:00,
2013-01-16 07:10:00,16.6,10.9,30.05,NE,39,1.0,1.0,78,0.00,,,0.00,Wunderground v.1.15,2013-01-16 13:10:00,
2013-01-16 07:15:00,16.5,10.8,30.04,NNE,29,1.0,2.0,78,0.00,,,0.00,Wunderground v.1.15,2013-01-16 13:15:00,
2013-01-16 07:20:00,16.5,11.1,30.04,ENE,64,1.0,1.0,79,0.00,,,0.00,Wunderground v.1.15,2013-01-16 13:20:00,
2013-01-16 07:30:00,16.6,11.2,30.04,ENE,68,2.0,2.0,79,0.00,,,0.00,Wunderground v.1.15,2013-01-16 13:30:00,
2013-01-16 07:35:00,16.6,10.9,30.04,East,92,2.0,2.0,78,0.00,,,0.00,Wunderground v.1.15,2013-01-16 13:35:00,
2013-01-16 07:40:00,16.5,10.8,30.04,NE,44,2.0,2.0,78,0.00,,,0.00,Wunderground v.1.15,2013-01-16 13:40:00,
2013-01-16 07:45:00,16.4,11.0,30.04,ENE,66,1.0,2.0,79,0.00,,,0.00,Wunderground v.1.15,2013-01-16 13:45:00,
2013-01-16 07:50:00,16.4,11.0,30.04,East,87,1.0,3.0,79,0.00,,,0.00,Wunderground v.1.15,2013-01-16 13:50:00,
2013-01-16 07:55:00,16.5,11.1,30.04,ENE,66,2.0,3.0,79,0.00,,,0.00,Wunderground v.1.15,2013-01-16 13:55:00,
2013-01-16 08:00:00,16.8,11.4,30.05,East,82,2.0,2.0,79,0.00,,,0.00,Wunderground v.1.15,2013-01-16 14:00:00,
2013-01-16 08:10:00,17.5,11.8,30.05,NNE,29,2.0,2.0,78,0.00,,,0.00,Wunderground v.1.15,2013-01-16 14:10:00,
2013-01-16 08:15:00,18.0,12.3,30.06,ENE,58,2.0,2.0,78,0.00,,,0.00,Wunderground v.1.15,2013-01-16 14:15:00,
2013-01-16 08:20:00,18.5,12.5,30.06,ESE,122,2.0,2.0,77,0.00,,,0.00,Wunderground v.1.15,2013-01-16 14:20:00,
2013-01-16 08:25:00,18.9,12.9,30.06,East,98,2.0,2.0,77,0.00,,,0.00,Wunderground v.1.15,2013-01-16 14:25:00,
2013-01-16 08:30:00,19.3,13.0,30.06,East,79,2.0,3.0,76,0.00,,,0.00,Wunderground v.1.15,2013-01-16 14:30:00,
2013-01-16 08:35:00,19.7,13.4,30.06,North,11,2.0,3.0,76,0.00,,,0.00,Wunderground v.1.15,2013-01-16 14:35:00,
2013-01-16 08:45:00,20.4,13.7,30.07,ENE,72,2.0,3.0,75,0.00,,,0.00,Wunderground v.1.15,2013-01-16 14:45:00,
2013-01-16 08:50:00,20.7,14.0,30.07,NE,53,2.0,2.0,75,0.00,,,0.00,Wunderground v.1.15,2013-01-16 14:50:00,
2013-01-16 08:55:00,21.0,14.0,30.07,NE,44,3.0,3.0,74,0.00,,,0.00,Wunderground v.1.15,2013-01-16 14:55:00,
2013-01-16 09:00:00,21.5,14.5,30.07,NE,46,3.0,3.0,74,0.00,,,0.00,Wunderground v.1.15,2013-01-16 15:00:00,
2013-01-16 09:10:00,22.4,15.1,30.08,ESE,116,2.0,3.0,73,0.00,,,0.00,Wunderground v.1.15,2013-01-16 15:10:00,
2013-01-16 09:15:00,22.8,15.4,30.08,North,359,3.0,3.0,73,0.00,,,0.00,Wunderground v.1.15,2013-01-16 15:15:00,
2013-01-16 09:20:00,23.0,15.3,30.08,ENE,63,3.0,3.0,72,0.00,,,0.00,Wunderground v.1.15,2013-01-16 15:20:00,
2013-01-16 09:25:00,23.6,16.2,30.08,NNE,15,3.0,5.0,73,0.00,,,0.00,Wunderground v.1.15,2013-01-16 15:25:00,
2013-01-16 09:30:00,24.1,16.1,30.08,ENE,62,2.0,3.0,71,0.00,,,0.00,Wunderground v.1.15,2013-01-16 15:30:00,
2013-01-16 09:35:00,24.6,16.5,30.08,NNW,332,2.0,3.0,71,0.00,,,0.00,Wunderground v.1.15,2013-01-16 15:35:00,
2013-01-16 09:40:00,25.1,17.0,30.08,ENE,60,2.0,3.0,71,0.00,,,0.00,Wunderground v.1.15,2013-01-16 15:40:00,
2013-01-16 09:50:00,26.2,17.7,30.07,East,96,2.0,2.0,70,0.00,,,0.00,Wunderground v.1.15,2013-01-16 15:50:00,
2013-01-16 09:55:00,26.4,17.3,30.07,SE,126,2.0,2.0,68,0.00,,,0.00,Wunderground v.1.15,2013-01-16 15:55:00,
2013-01-16 10:00:00,26.6,17.5,30.07,East,96,3.0,5.0,68,0.00,,,0.00,Wunderground v.1.15,2013-01-16 16:00:00,
2013-01-16 10:10:00,27.0,17.8,30.07,East,101,3.0,3.0,68,0.00,,,0.00,Wunderground v.1.15,2013-01-16 16:10:00,
2013-01-16 10:15:00,27.3,18.1,30.07,North,9,3.0,3.0,68,0.00,,,0.00,Wunderground v.1.15,2013-01-16 16:15:00,
2013-01-16 10:25:00,27.8,18.3,30.07,ESE,112,4.0,7.0,67,0.00,,,0.00,Wunderground v.1.15,2013-01-16 16:25:00,
2013-01-16 10:30:00,27.9,18.4,30.07,WNW,294,4.0,4.0,67,0.00,,,0.00,Wunderground v.1.15,2013-01-16 16:30:00,
2013-01-16 10:40:00,28.8,19.2,30.07,ENE,62,3.0,3.0,67,0.00,,,0.00,Wunderground v.1.15,2013-01-16 16:40:00,
2013-01-16 10:50:00,29.6,20.0,30.06,ENE,67,3.0,3.0,67,0.00,,,0.00,Wunderground v.1.15,2013-01-16 16:50:00,
2013-01-16 10:55:00,30.2,19.8,30.06,SE,145,3.0,3.0,65,0.00,,,0.00,Wunderground v.1.15,2013-01-16 16:55:00,
2013-01-16 11:00:00,30.6,20.2,30.06,NNW,345,3.0,4.0,65,0.00,,,0.00,Wunderground v.1.15,2013-01-16 17:00:00,
2013-01-16 11:10:00,31.3,20.5,30.05,WNW,297,3.0,3.0,64,0.00,,,0.00,Wunderground v.1.15,2013-01-16 17:10:00,
2013-01-16 11:15:00,31.8,21.0,30.05,ESE,112,3.0,3.0,64,0.00,,,0.00,Wunderground v.1.15,2013-01-16 17:15:00,
2013-01-16 11:20:00,32.4,21.2,30.05,WSW,256,3.0,3.0,63,0.00,,,0.00,Wunderground v.1.15,2013-01-16 17:20:00,
2013-01-16 11:25:00,32.9,21.7,30.04,WNW,290,3.0,4.0,63,0.00,,,0.00,Wunderground v.1.15,2013-01-16 17:25:00,
2013-01-16 11:30:00,33.3,21.3,30.04,North,5,3.0,3.0,61,0.00,,,0.00,Wunderground v.1.15,2013-01-16 17:30:00,
2013-01-16 11:35:00,33.6,21.6,30.03,NNE,23,3.0,4.0,61,0.00,,,0.00,Wunderground v.1.15,2013-01-16 17:35:00,
2013-01-16 11:40:00,33.7,21.7,30.03,NNE,23,3.0,3.0,61,0.00,,,0.00,Wunderground v.1.15,2013-01-16 17:40:00,
2013-01-16 11:45:00,33.8,21.8,30.03,East,81,4.0,4.0,61,0.00,,,0.00,Wunderground v.1.15,2013-01-16 17:45:00,
2013-01-16 11:55:00,34.1,22.0,30.02,SSW,212,3.0,4.0,61,0.00,,,0.00,Wunderground v.1.15,2013-01-16 17:55:00,
2013-01-16 12:00:00,34.2,21.7,30.02,NE,54,4.0,5.0,60,0.00,,,0.00,Wunderground v.1.15,2013-01-16 18:00:00,
2013-01-16 12:10:00,34.5,22.0,30.02,NNW,348,4.0,6.0,60,0.00,,,0.00,Wunderground v.1.15,2013-01-16 18:10:00,
2013-01-16 12:15:00,34.5,21.6,30.02,NE,39,5.0,6.0,59,0.00,,,0.00,Wunderground v.1.15,2013-01-16 18:15:00,
2013-01-16 12:20:00,34.5,22.0,30.01,East,86,6.0,6.0,60,0.00,,,0.00,Wunderground v.1.15,2013-01-16 18:20:00,
2013-01-16 12:30:00,35.4,23.3,30.01,NW,312,5.0,5.0,61,0.00,,,0.00,Wunderground v.1.15,2013-01-16 18:30:00,
2013-01-16 12:35:00,35.8,23.3,30.00,NNE,19,5.0,5.0,60,0.00,,,0.00,Wunderground v.1.15,2013-01-16 18:35:00,
2013-01-16 12:45:00,36.6,22.8,30.00,NE,47,5.0,5.0,57,0.00,,,0.00,Wunderground v.1.15,2013-01-16 18:45:00,
2013-01-16 12:50:00,37.1,23.7,30.00,NNE,22,5.0,5.0,58,0.00,,,0.01,Wunderground v.1.15,2013-01-16 18:50:00,
2013-01-16 12:55:00,37.8,23.9,30.00,NNE,23,5.0,5.0,57,0.00,,,0.01,Wunderground v.1.15,2013-01-16 18:55:00,
2013-01-16 13:00:00,37.9,22.3,30.00,East,89,5.0,7.0,53,0.00,,,0.01,Wunderground v.1.15,2013-01-16 19:00:00,
2013-01-16 13:10:00,37.9,22.3,30.00,East,92,6.0,6.0,53,0.00,,,0.01,Wunderground v.1.15,2013-01-16 19:10:00,
2013-01-16 13:15:00,38.3,23.1,30.00,East,86,6.0,6.0,54,0.00,,,0.01,Wunderground v.1.15,2013-01-16 19:15:00,
2013-01-16 13:20:00,38.5,22.8,30.00,NE,47,6.0,6.0,53,0.00,,,0.01,Wunderground v.1.15,2013-01-16 19:20:00,
2013-01-16 13:25:00,38.9,23.2,30.00,NE,56,6.0,6.0,53,0.00,,,0.01,Wunderground v.1.15,2013-01-16 19:25:00,
2013-01-16 13:35:00,39.0,23.3,30.00,ENE,77,5.0,5.0,53,0.00,,,0.02,Wunderground v.1.15,2013-01-16 19:35:00,
2013-01-16 13:40:00,38.9,23.2,30.00,ESE,102,6.0,7.0,53,0.00,,,0.02,Wunderground v.1.15,2013-01-16 19:40:00,
2013-01-16 13:45:00,38.8,23.1,30.00,ENE,76,6.0,7.0,53,0.00,,,0.02,Wunderground v.1.15,2013-01-16 19:45:00,
2013-01-16 13:50:00,38.9,23.7,30.00,East,89,5.0,5.0,54,0.00,,,0.02,Wunderground v.1.15,2013-01-16 19:50:00,
2013-01-16 13:55:00,39.0,23.7,30.00,ENE,68,5.0,9.0,54,0.00,,,0.02,Wunderground v.1.15,2013-01-16 19:55:00,
2013-01-16 14:05:00,38.8,23.6,30.01,SE,142,6.0,7.0,54,0.00,,,0.02,Wunderground v.1.15,2013-01-16 20:05:00,
2013-01-16 14:15:00,38.9,23.7,30.00,East,87,6.0,6.0,54,0.00,,,0.03,Wunderground v.1.15,2013-01-16 20:15:00,
2013-01-16 14:20:00,39.1,24.3,30.01,ENE,78,5.0,5.0,55,0.00,,,0.03,Wunderground v.1.15,2013-01-16 20:20:00,
2013-01-16 14:25:00,39.1,24.3,30.01,NE,56,4.0,5.0,55,0.00,,,0.03,Wunderground v.1.15,2013-01-16 20:25:00,
2013-01-16 14:30:00,39.0,24.2,30.01,East,79,4.0,4.0,55,0.00,,,0.03,Wunderground v.1.15,2013-01-16 20:30:00,
2013-01-16 14:40:00,39.2,24.4,30.01,East,88,3.0,4.0,55,0.00,,,0.03,Wunderground v.1.15,2013-01-16 20:40:00,
2013-01-16 14:50:00,39.2,24.4,30.01,NNW,346,4.0,4.0,55,0.00,,,0.03,Wunderground v.1.15,2013-01-16 20:50:00,
2013-01-16 14:55:00,39.3,24.9,30.00,ENE,58,3.0,4.0,56,0.00,,,0.03,Wunderground v.1.15,2013-01-16 20:55:00,
2013-01-16 15:00:00,39.7,24.8,30.00,ENE,76,3.0,4.0,55,0.00,,,0.03,Wunderground v.1.15,2013-01-16 21:00:00,
2013-01-16 15:10:00,40.4,25.5,30.00,East,85,4.0,5.0,55,0.00,,,0.04,Wunderground v.1.15,2013-01-16 21:10:00,
2013-01-16 15:15:00,40.5,25.6,30.00,ENE,69,4.0,5.0,55,0.00,,,0.04,Wunderground v.1.15,2013-01-16 21:15:00,
2013-01-16 15:20:00,40.5,25.6,30.00,ENE,58,4.0,4.0,55,0.00,,,0.04,Wunderground v.1.15,2013-01-16 21:20:00,
2013-01-16 15:25:00,40.5,26.0,30.00,NW,326,4.0,4.0,56,0.00,,,0.04,Wunderground v.1.15,2013-01-16 21:25:00,
2013-01-16 15:30:00,40.6,26.1,30.00,ENE,67,3.0,3.0,56,0.00,,,0.04,Wunderground v.1.15,2013-01-16 21:30:00,
2013-01-16 15:40:00,41.0,26.5,30.00,East,87,3.0,3.0,56,0.00,,,0.04,Wunderground v.1.15,2013-01-16 21:40:00,
2013-01-16 15:50:00,41.3,26.8,30.01,ENE,61,3.0,3.0,56,0.00,,,0.04,Wunderground v.1.15,2013-01-16 21:50:00,
2013-01-16 15:55:00,41.3,26.8,30.00,East,86,3.0,3.0,56,0.00,,,0.04,Wunderground v.1.15,2013-01-16 21:55:00,
2013-01-16 16:00:00,41.3,26.8,30.00,ENE,73,2.0,3.0,56,0.00,,,0.05,Wunderground v.1.15,2013-01-16 22:00:00,
2013-01-16 16:10:00,41.2,27.1,30.01,South,176,2.0,2.0,57,0.00,,,0.05,Wunderground v.1.15,2013-01-16 22:10:00,
2013-01-16 16:15:00,41.0,26.9,30.01,North,356,1.0,2.0,57,0.00,,,0.05,Wunderground v.1.15,2013-01-16 22:15:00,
2013-01-16 16:25:00,40.8,27.2,30.01,NE,46,1.0,1.0,58,0.00,,,0.05,Wunderground v.1.15,2013-01-16 22:25:00,
2013-01-16 16:36:00,40.6,27.4,30.02,NE,51,1.0,1.0,59,0.00,,,0.05,Wunderground v.1.15,2013-01-16 22:36:00,
2013-01-16 16:45:00,40.4,27.2,30.03,NE,46,1.0,1.0,59,0.00,,,0.05,Wunderground v.1.15,2013-01-16 22:45:00,
2013-01-16 16:50:00,40.3,27.1,30.03,ENE,76,1.0,1.0,59,0.00,,,0.05,Wunderground v.1.15,2013-01-16 22:50:00,
2013-01-16 16:55:00,40.0,26.8,30.04,NE,47,1.0,1.0,59,0.00,,,0.05,Wunderground v.1.15,2013-01-16 22:55:00,
2013-01-16 17:00:00,39.7,26.9,30.04,NE,36,0.0,0.0,60,0.00,,,0.05,Wunderground v.1.15,2013-01-16 23:00:00,
2013-01-16 17:10:00,39.1,26.8,30.04,NNW,333,0.0,0.0,61,0.00,,,0.05,Wunderground v.1.15,2013-01-16 23:10:00,
2013-01-16 17:15:00,38.7,26.8,30.05,NW,304,0.0,0.0,62,0.00,,,0.05,Wunderground v.1.15,2013-01-16 23:15:00,
2013-01-16 17:25:00,38.1,26.6,30.04,NNE,22,1.0,1.0,63,0.00,,,0.05,Wunderground v.1.15,2013-01-16 23:25:00,
2013-01-16 17:35:00,37.6,26.5,30.05,ENE,57,1.0,1.0,64,0.00,,,0.05,Wunderground v.1.15,2013-01-16 23:35:00,
2013-01-16 17:40:00,37.3,26.6,30.05,NE,34,1.0,1.0,65,0.00,,,0.05,Wunderground v.1.15,2013-01-16 23:40:00,
2013-01-16 17:45:00,37.1,26.8,30.05,NNE,27,1.0,1.0,66,0.00,,,0.05,Wunderground v.1.15,2013-01-16 23:45:00,
2013-01-16 17:50:00,36.9,26.6,30.05,NNE,20,1.0,1.0,66,0.00,,,0.05,Wunderground v.1.15,2013-01-16 23:50:00,
2013-01-16 17:56:00,36.7,26.8,30.05,NE,44,1.0,2.0,67,0.00,,,0.05,Wunderground v.1.15,2013-01-16 23:56:00,
2013-01-16 18:05:00,36.4,26.5,30.05,NNE,25,1.0,1.0,67,0.00,,,0.05,Wunderground v.1.15,2013-01-17 00:05:00,
2013-01-16 18:10:00,36.3,26.4,30.05,NNE,30,1.0,1.0,67,0.00,,,0.05,Wunderground v.1.15,2013-01-17 00:10:00,
2013-01-16 18:15:00,36.3,26.4,30.05,NW,304,1.0,1.0,67,0.00,,,0.05,Wunderground v.1.15,2013-01-17 00:15:00,
2013-01-16 18:20:00,36.1,26.2,30.05,NW,323,1.0,1.0,67,0.00,,,0.05,Wunderground v.1.15,2013-01-17 00:20:00,
2013-01-16 18:30:00,35.7,26.2,30.05,NNE,19,1.0,2.0,68,0.00,,,0.05,Wunderground v.1.15,2013-01-17 00:30:00,
2013-01-16 18:35:00,35.5,26.0,30.06,ENE,70,0.0,2.0,68,0.00,,,0.05,Wunderground v.1.15,2013-01-17 00:35:00,
2013-01-16 18:40:00,35.4,25.9,30.06,ENE,67,0.0,0.0,68,0.00,,,0.05,Wunderground v.1.15,2013-01-17 00:40:00,
2013-01-16 18:45:00,35.3,26.1,30.06,NE,35,1.0,1.0,69,0.00,,,0.05,Wunderground v.1.15,2013-01-17 00:45:00,
2013-01-16 18:50:00,35.2,26.0,30.06,NNE,32,1.0,1.0,69,0.00,,,0.05,Wunderground v.1.15,2013-01-17 00:50:00,
2013-01-16 18:55:00,35.1,25.9,30.06,NNE,29,0.0,1.0,69,0.00,,,0.05,Wunderground v.1.15,2013-01-17 00:55:00,
2013-01-16 19:05:00,34.9,25.8,30.06,NE,45,0.0,1.0,69,0.00,,,0.05,Wunderground v.1.15,2013-01-17 01:05:00,
2013-01-16 19:10:00,35.0,25.9,30.07,East,97,1.0,1.0,69,0.00,,,0.05,Wunderground v.1.15,2013-01-17 01:10:00,
2013-01-16 19:15:00,34.9,25.8,30.07,East,82,1.0,1.0,69,0.00,,,0.05,Wunderground v.1.15,2013-01-17 01:15:00,
2013-01-16 19:25:00,35.0,25.9,30.07,NNE,13,1.0,1.0,69,0.00,,,0.05,Wunderground v.1.15,2013-01-17 01:25:00,
2013-01-16 19:30:00,35.1,25.9,30.07,NE,51,1.0,2.0,69,0.00,,,0.05,Wunderground v.1.15,2013-01-17 01:30:00,
2013-01-16 19:35:00,35.2,26.0,30.07,ENE,77,2.0,2.0,69,0.00,,,0.05,Wunderground v.1.15,2013-01-17 01:35:00,
2013-01-16 19:40:00,35.2,26.0,30.07,ENE,74,2.0,2.0,69,0.00,,,0.05,Wunderground v.1.15,2013-01-17 01:40:00,
2013-01-16 19:50:00,35.1,25.9,30.07,ENE,65,2.0,2.0,69,0.00,,,0.05,Wunderground v.1.15,2013-01-17 01:50:00,
2013-01-16 19:55:00,34.9,25.8,30.07,East,79,2.0,2.0,69,0.00,,,0.05,Wunderground v.1.15,2013-01-17 01:55:00,
2013-01-16 20:00:00,34.8,26.0,30.07,ENE,73,1.0,1.0,70,0.00,,,0.05,Wunderground v.1.15,2013-01-17 02:00:00,
2013-01-16 20:10:00,34.7,25.9,30.07,ENE,72,2.0,2.0,70,0.00,,,0.05,Wunderground v.1.15,2013-01-17 02:10:00,
2013-01-16 20:15:00,34.6,25.8,30.07,East,82,2.0,2.0,70,0.00,,,0.05,Wunderground v.1.15,2013-01-17 02:15:00,
2013-01-16 20:20:00,34.5,25.7,30.07,East,81,2.0,2.0,70,0.00,,,0.05,Wunderground v.1.15,2013-01-17 02:20:00,
2013-01-16 20:25:00,34.3,25.5,30.07,East,82,2.0,2.0,70,0.00,,,0.05,Wunderground v.1.15,2013-01-17 02:25:00,
2013-01-16 20:30:00,34.0,25.6,30.07,East,87,2.0,2.0,71,0.00,,,0.05,Wunderground v.1.15,2013-01-17 02:30:00,
2013-01-16 20:40:00,33.6,25.5,30.07,East,91,1.0,1.0,72,0.00,,,0.05,Wunderground v.1.15,2013-01-17 02:40:00,
2013-01-16 20:45:00,33.5,25.8,30.07,East,91,1.0,1.0,73,0.00,,,0.05,Wunderground v.1.15,2013-01-17 02:45:00,
2013-01-16 20:50:00,33.4,25.7,30.07,East,85,1.0,1.0,73,0.00,,,0.05,Wunderground v.1.15,2013-01-17 02:50:00,
2013-01-16 21:00:00,33.6,25.9,30.07,East,86,1.0,1.0,73,0.00,,,0.05,Wunderground v.1.15,2013-01-17 03:00:00,
2013-01-16 21:10:00,33.7,25.6,30.07,East,83,1.0,1.0,72,0.00,,,0.05,Wunderground v.1.15,2013-01-17 03:10:00,
2013-01-16 21:15:00,33.6,25.5,30.07,East,81,1.0,1.0,72,0.00,,,0.05,Wunderground v.1.15,2013-01-17 03:15:00,
2013-01-16 21:20:00,33.3,25.6,30.07,East,81,1.0,1.0,73,0.00,,,0.05,Wunderground v.1.15,2013-01-17 03:20:00,
2013-01-16 21:25:00,33.1,25.4,30.07,East,80,1.0,1.0,73,0.00,,,0.05,Wunderground v.1.15,2013-01-17 03:25:00,
2013-01-16 21:35:00,32.7,25.0,30.07,East,81,1.0,1.0,73,0.00,,,0.05,Wunderground v.1.15,2013-01-17 03:35:00,
2013-01-16 21:45:00,32.9,25.5,30.07,East,90,1.0,1.0,74,0.00,,,0.05,Wunderground v.1.15,2013-01-17 03:45:00,
2013-01-16 21:55:00,33.1,25.7,30.07,East,91,1.0,1.0,74,0.00,,,0.05,Wunderground v.1.15,2013-01-17 03:55:00,
2013-01-16 22:00:00,32.9,25.5,30.08,East,91,1.0,1.0,74,0.00,,,0.05,Wunderground v.1.15,2013-01-17 04:00:00,
2013-01-16 22:05:00,32.8,25.4,30.08,East,90,1.0,1.0,74,0.00,,,0.05,Wunderground v.1.15,2013-01-17 04:05:00,
2013-01-16 22:15:00,32.9,25.8,30.08,East,89,0.0,1.0,75,0.00,,,0.05,Wunderground v.1.15,2013-01-17 04:15:00,
2013-01-16 22:20:00,33.0,25.9,30.08,East,89,0.0,0.0,75,0.00,,,0.05,Wunderground v.1.15,2013-01-17 04:20:00,
2013-01-16 22:25:00,33.2,26.5,30.08,ENE,72,0.0,0.0,76,0.00,,,0.05,Wunderground v.1.15,2013-01-17 04:25:00,
2013-01-16 22:30:00,34.0,26.9,30.08,East,82,1.0,1.0,75,0.00,,,0.05,Wunderground v.1.15,2013-01-17 04:30:00,
2013-01-16 22:35:00,34.7,26.9,30.09,East,82,2.0,2.0,73,0.00,,,0.05,Wunderground v.1.15,2013-01-17 04:35:00,
2013-01-16 22:40:00,34.6,26.5,30.08,East,89,1.0,1.0,72,0.00,,,0.05,Wunderground v.1.15,2013-01-17 04:40:00,
2013-01-16 22:45:00,33.9,25.8,30.08,East,89,1.0,1.0,72,0.00,,,0.05,Wunderground v.1.15,2013-01-17 04:45:00,
2013-01-16 22:50:00,33.1,25.4,30.09,East,89,1.0,1.0,73,0.00,,,0.05,Wunderground v.1.15,2013-01-17 04:50:00,
2013-01-16 22:55:00,32.9,25.5,30.09,NNE,33,1.0,1.0,74,0.00,,,0.05,Wunderground v.1.15,2013-01-17 04:55:00,
2013-01-16 23:05:00,32.9,26.2,30.10,ENE,73,1.0,1.0,76,0.00,,,0.05,Wunderground v.1.15,2013-01-17 05:05:00,
2013-01-16 23:10:00,32.7,26.0,30.10,ENE,73,1.0,1.0,76,0.00,,,0.05,Wunderground v.1.15,2013-01-17 05:10:00,
2013-01-16 23:20:00,32.5,25.8,30.11,ENE,73,1.0,2.0,76,0.00,,,0.05,Wunderground v.1.15,2013-01-17 05:20:00,
2013-01-16 23:25:00,32.3,25.6,30.11,ENE,74,1.0,2.0,76,0.00,,,0.05,Wunderground v.1.15,2013-01-17 05:25:00,
2013-01-16 23:30:00,32.4,26.3,30.11,ENE,74,1.0,1.0,78,0.00,,,0.05,Wunderground v.1.15,2013-01-17 05:30:00,
2013-01-16 23:35:00,32.9,26.8,30.11,ENE,73,1.0,1.0,78,0.00,,,0.05,Wunderground v.1.15,2013-01-17 05:35:00,
2013-01-16 23:45:00,34.4,28.2,30.12,East,79,1.0,1.0,78,0.00,,,0.05,Wunderground v.1.15,2013-01-17 05:45:00,
2013-01-16 23:50:00,34.8,28.6,30.12,East,79,1.0,1.0,78,0.00,,,0.05,Wunderground v.1.15,2013-01-17 05:50:00,
2013-01-16 23:55:00,35.1,28.9,30.13,East,81,1.0,1.0,78,0.00,,,0.05,Wunderground v.1.15,2013-01-17 05:55:00,